createdAt,value
2022-11-30T00:00:20.838Z,98577.50
2022-11-30T00:02:47.780Z,98575.41
2022-11-30T00:05:14.447Z,98576.53
2022-11-30T00:07:41.215Z,98582.47
2022-11-30T00:10:08.368Z,98566.69
2022-11-30T00:12:34.983Z,98569.44
2022-11-30T00:15:01.486Z,98568.34
2022-11-30T00:17:28.158Z,98568.78
2022-11-30T00:19:54.702Z,98570.69
2022-11-30T00:22:21.289Z,98565.59
2022-11-30T00:24:48.114Z,98571.13
2022-11-30T00:27:14.826Z,98571.94
2022-11-30T00:29:41.731Z,98561.38
2022-11-30T00:32:08.274Z,98563.63
2022-11-30T00:34:34.827Z,98560.59
2022-11-30T00:37:01.454Z,98566.53
2022-11-30T00:39:33.910Z,98565.56
2022-11-30T00:42:01.971Z,98555.84
2022-11-30T00:44:28.545Z,98555.69
2022-11-30T00:46:55.018Z,98563.94
2022-11-30T00:49:21.507Z,98571.28
2022-11-30T00:51:48.006Z,98564.38
2022-11-30T00:54:14.543Z,98570.34
2022-11-30T00:56:41.338Z,98558.38
2022-11-30T00:59:07.911Z,98559.75
2022-11-30T01:01:35.788Z,98561.88
2022-11-30T01:04:02.829Z,98559.16
2022-11-30T01:06:29.371Z,98565.19
2022-11-30T01:08:55.908Z,98564.69
2022-11-30T01:11:26.505Z,98568.56
2022-11-30T01:13:53.378Z,98568.41
2022-11-30T01:16:21.600Z,98567.00
2022-11-30T01:21:16.496Z,98571.16
2022-11-30T01:23:43.148Z,98571.66
2022-11-30T01:26:09.716Z,98574.94
2022-11-30T01:28:36.645Z,98579.09
2022-11-30T01:31:04.438Z,98574.66
2022-11-30T01:33:30.976Z,98582.19
2022-11-30T01:36:03.973Z,98578.72
2022-11-30T01:38:34.392Z,98581.63
2022-11-30T01:41:01.362Z,98577.75
2022-11-30T01:43:41.414Z,98586.03
2022-11-30T01:46:21.439Z,98592.84
2022-11-30T01:48:49.036Z,98583.56
2022-11-30T01:51:15.552Z,98585.81
2022-11-30T01:53:43.118Z,98579.97
2022-11-30T01:56:09.639Z,98585.25
2022-11-30T01:58:36.732Z,98584.25
2022-11-30T02:01:04.063Z,98581.75
2022-11-30T02:03:41.625Z,98587.84
2022-11-30T02:06:08.396Z,98595.47
2022-11-30T02:08:35.559Z,98590.50
2022-11-30T02:11:06.296Z,98585.25
2022-11-30T02:13:52.804Z,98588.31
2022-11-30T02:16:25.484Z,98593.94
2022-11-30T02:19:10.941Z,98590.88
2022-11-30T02:21:57.736Z,98594.38
2022-11-30T02:24:43.355Z,98593.81
2022-11-30T02:27:24.185Z,98586.91
2022-11-30T02:29:55.308Z,98587.84
2022-11-30T02:32:23.448Z,98588.81
2022-11-30T02:34:50.046Z,98587.59
2022-11-30T02:37:17.282Z,98590.94
2022-11-30T02:39:43.995Z,98590.22
2022-11-30T02:42:12.584Z,98588.56
2022-11-30T02:44:43.677Z,98594.91
2022-11-30T02:47:10.881Z,98588.41
2022-11-30T02:49:37.344Z,98588.84
2022-11-30T02:52:03.950Z,98595.63
2022-11-30T02:54:30.532Z,98589.66
2022-11-30T02:56:57.776Z,98593.06
2022-11-30T02:59:24.285Z,98590.34
2022-11-30T03:01:50.997Z,98592.41
2022-11-30T03:04:17.553Z,98590.47
2022-11-30T03:06:44.042Z,98589.09
2022-11-30T03:09:11.037Z,98595.19
2022-11-30T03:11:37.548Z,98595.78
2022-11-30T03:14:04.135Z,98595.78
2022-11-30T03:16:30.792Z,98602.66
2022-11-30T03:18:58.219Z,98600.47
2022-11-30T03:21:24.858Z,98602.41
2022-11-30T03:23:51.365Z,98600.06
2022-11-30T03:26:17.959Z,98609.41
2022-11-30T03:28:44.501Z,98602.59
2022-11-30T03:31:13.111Z,98606.50
2022-11-30T03:33:43.382Z,98610.72
2022-11-30T03:36:10.791Z,98607.72
2022-11-30T03:38:37.657Z,98605.91
2022-11-30T03:41:05.233Z,98609.63
2022-11-30T03:43:32.182Z,98605.50
2022-11-30T03:45:58.833Z,98614.06
2022-11-30T03:48:25.548Z,98606.41
2022-11-30T03:50:52.435Z,98609.50
2022-11-30T03:53:19.941Z,98611.59
2022-11-30T03:55:46.660Z,98615.44
2022-11-30T03:58:13.208Z,98615.88
2022-11-30T04:00:39.747Z,98614.66
2022-11-30T04:03:06.429Z,98606.31
2022-11-30T04:05:33.017Z,98608.53
2022-11-30T04:07:59.944Z,98606.41
2022-11-30T04:10:26.671Z,98613.25
2022-11-30T04:12:53.179Z,98611.59
2022-11-30T04:15:19.689Z,98614.06
2022-11-30T04:17:46.231Z,98610.31
2022-11-30T04:20:12.954Z,98612.03
2022-11-30T04:22:43.568Z,98614.22
2022-11-30T04:25:10.093Z,98608.78
2022-11-30T04:27:36.587Z,98616.53
2022-11-30T04:30:03.210Z,98611.94
2022-11-30T04:32:29.741Z,98613.34
2022-11-30T04:34:56.278Z,98614.22
2022-11-30T04:37:22.855Z,98620.19
2022-11-30T04:39:49.336Z,98614.91
2022-11-30T04:42:15.928Z,98620.06
2022-11-30T04:44:42.600Z,98616.72
2022-11-30T04:47:09.103Z,98623.19
2022-11-30T04:49:35.578Z,98616.94
2022-11-30T04:52:02.192Z,98614.56
2022-11-30T04:54:28.792Z,98620.88
2022-11-30T04:56:56.000Z,98620.44
2022-11-30T04:59:22.550Z,98620.06
2022-11-30T05:01:49.140Z,98617.53
2022-11-30T05:04:15.779Z,98619.66
2022-11-30T05:06:42.395Z,98615.19
2022-11-30T05:09:08.912Z,98623.78
2022-11-30T05:11:35.489Z,98615.50
2022-11-30T05:14:02.254Z,98623.53
2022-11-30T05:16:28.902Z,98625.19
2022-11-30T05:18:55.542Z,98622.22
2022-11-30T05:21:22.575Z,98621.09
2022-11-30T05:23:49.053Z,98622.63
2022-11-30T05:26:15.811Z,98627.03
2022-11-30T05:28:42.718Z,98628.44
2022-11-30T05:31:09.314Z,98633.28
2022-11-30T05:33:35.915Z,98636.53
2022-11-30T05:36:08.829Z,98625.88
2022-11-30T05:38:37.318Z,98635.03
2022-11-30T05:41:03.829Z,98629.94
2022-11-30T05:43:30.415Z,98631.78
2022-11-30T05:46:00.981Z,98635.00
2022-11-30T05:48:28.125Z,98637.34
2022-11-30T05:50:55.248Z,98631.97
2022-11-30T05:53:21.797Z,98637.78
2022-11-30T05:55:48.358Z,98637.72
2022-11-30T05:58:14.902Z,98637.06
2022-11-30T06:00:41.557Z,98635.69
2022-11-30T06:03:08.205Z,98639.97
2022-11-30T06:05:35.383Z,98639.03
2022-11-30T06:08:02.427Z,98638.00
2022-11-30T06:10:29.136Z,98636.66
2022-11-30T06:12:56.120Z,98633.88
2022-11-30T06:15:22.714Z,98635.75
2022-11-30T06:17:49.267Z,98635.75
2022-11-30T06:20:16.242Z,98643.22
2022-11-30T06:22:44.717Z,98636.66
2022-11-30T06:25:11.236Z,98640.97
2022-11-30T06:27:37.824Z,98638.19
2022-11-30T06:30:04.670Z,98630.44
2022-11-30T06:32:31.186Z,98634.00
2022-11-30T06:34:57.793Z,98629.06
2022-11-30T06:37:25.024Z,98632.31
2022-11-30T06:40:05.956Z,98633.28
2022-11-30T06:42:33.667Z,98631.53
2022-11-30T06:45:00.242Z,98638.88
2022-11-30T06:47:27.051Z,98632.75
2022-11-30T06:49:53.990Z,98634.16
2022-11-30T06:52:20.983Z,98637.78
2022-11-30T06:54:47.817Z,98641.25
2022-11-30T06:57:14.646Z,98642.22
2022-11-30T06:59:44.247Z,98640.75
2022-11-30T07:02:17.959Z,98648.22
2022-11-30T07:04:45.545Z,98648.06
2022-11-30T07:07:12.389Z,98651.19
2022-11-30T07:09:38.908Z,98657.34
2022-11-30T07:12:05.698Z,98658.59
2022-11-30T07:14:41.727Z,98655.84
2022-11-30T07:17:08.561Z,98657.06
2022-11-30T07:19:35.299Z,98654.88
2022-11-30T07:22:03.092Z,98655.97
2022-11-30T07:24:49.269Z,98656.84
2022-11-30T07:27:17.963Z,98654.69
2022-11-30T07:29:44.776Z,98663.47
2022-11-30T07:32:11.404Z,98664.03
2022-11-30T07:34:38.014Z,98659.56
2022-11-30T07:37:06.876Z,98659.09
2022-11-30T07:39:33.422Z,98657.31
2022-11-30T07:41:59.979Z,98660.19
2022-11-30T07:44:28.940Z,98658.09
2022-11-30T07:46:55.775Z,98657.28
2022-11-30T07:49:26.267Z,98656.06
2022-11-30T07:51:52.894Z,98657.84
2022-11-30T07:54:24.473Z,98657.00
2022-11-30T07:57:00.603Z,98665.06
2022-11-30T07:59:30.266Z,98666.00
2022-11-30T08:01:58.759Z,98672.69
2022-11-30T08:04:25.466Z,98671.59
2022-11-30T08:06:53.201Z,98674.25
2022-11-30T08:09:21.003Z,98681.47
2022-11-30T08:11:48.553Z,98685.78
2022-11-30T08:14:15.119Z,98682.72
2022-11-30T08:16:44.170Z,98681.06
2022-11-30T08:19:10.735Z,98685.91
2022-11-30T08:21:38.200Z,98687.28
2022-11-30T08:24:05.021Z,98690.59
2022-11-30T08:26:32.405Z,98692.81
2022-11-30T08:28:59.926Z,98695.34
2022-11-30T08:31:30.761Z,98685.00
2022-11-30T08:33:58.059Z,98691.84
2022-11-30T08:36:25.344Z,98695.84
2022-11-30T08:38:51.882Z,98689.50
2022-11-30T08:41:19.615Z,98698.34
2022-11-30T08:43:46.341Z,98702.66
2022-11-30T08:49:20.895Z,98702.22
2022-11-30T08:52:15.936Z,98700.56
2022-11-30T08:54:35.633Z,98698.94
2022-11-30T08:57:03.163Z,98700.28
2022-11-30T08:59:33.348Z,98706.81
2022-11-30T09:01:59.880Z,98708.19
2022-11-30T09:04:26.534Z,98710.28
2022-11-30T09:06:53.082Z,98707.28
2022-11-30T09:09:19.760Z,98716.13
2022-11-30T09:11:46.879Z,98713.94
2022-11-30T09:14:13.429Z,98712.69
2022-11-30T09:16:40.194Z,98717.16
2022-11-30T09:19:06.729Z,98721.75
2022-11-30T09:21:33.497Z,98720.78
2022-11-30T09:24:00.086Z,98731.34
2022-11-30T09:26:26.799Z,98726.72
2022-11-30T09:28:53.932Z,98722.19
2022-11-30T09:31:21.621Z,98724.38
2022-11-30T09:33:48.230Z,98721.03
2022-11-30T09:36:15.993Z,98729.50
2022-11-30T09:38:42.733Z,98721.13
2022-11-30T09:41:15.472Z,98729.75
2022-11-30T09:43:46.045Z,98717.03
2022-11-30T09:46:12.692Z,98720.00
2022-11-30T09:48:55.837Z,98728.34
2022-11-30T09:51:23.877Z,98719.47
2022-11-30T09:53:55.549Z,98718.38
2022-11-30T09:56:30.343Z,98722.66
2022-11-30T09:59:00.412Z,98724.28
2022-11-30T10:01:30.565Z,98718.44
2022-11-30T10:04:00.084Z,98724.72
2022-11-30T10:06:26.585Z,98719.28
2022-11-30T10:09:00.137Z,98718.84
2022-11-30T10:11:39.267Z,98717.94
2022-11-30T10:14:24.443Z,98712.69
2022-11-30T10:17:06.171Z,98713.16
2022-11-30T10:19:32.853Z,98719.53
2022-11-30T10:22:09.330Z,98718.84
2022-11-30T10:24:48.281Z,98718.28
2022-11-30T10:27:17.046Z,98720.38
2022-11-30T10:29:46.717Z,98713.97
2022-11-30T10:32:18.693Z,98718.13
2022-11-30T10:34:50.001Z,98708.69
2022-11-30T10:37:24.209Z,98715.66
2022-11-30T10:39:58.041Z,98714.53
2022-11-30T10:42:28.853Z,98705.13
2022-11-30T10:45:00.195Z,98705.66
2022-11-30T10:47:27.200Z,98711.59
2022-11-30T10:49:53.789Z,98709.81
2022-11-30T10:52:27.406Z,98705.94
2022-11-30T10:54:56.938Z,98706.50
2022-11-30T10:57:31.622Z,98701.34
2022-11-30T10:59:58.993Z,98705.13
2022-11-30T11:02:42.741Z,98693.69
2022-11-30T11:05:09.266Z,98694.28
2022-11-30T11:07:43.596Z,98697.03
2022-11-30T11:10:12.492Z,98689.66
2022-11-30T11:12:39.078Z,98702.59
2022-11-30T11:15:22.524Z,98699.41
2022-11-30T11:17:49.349Z,98701.22
2022-11-30T11:20:35.227Z,98702.03
2022-11-30T11:23:03.075Z,98704.25
2022-11-30T11:25:36.640Z,98701.78
2022-11-30T11:28:04.674Z,98707.03
2022-11-30T11:30:31.513Z,98698.97
2022-11-30T11:32:59.747Z,98702.03
2022-11-30T11:35:32.467Z,98704.13
2022-11-30T11:37:58.994Z,98700.25
2022-11-30T11:40:25.531Z,98698.84
2022-11-30T11:42:52.649Z,98695.78
2022-11-30T11:45:23.120Z,98700.50
2022-11-30T11:47:59.822Z,98702.59
2022-11-30T11:51:05.712Z,98700.88
2022-11-30T11:53:24.899Z,98704.31
2022-11-30T11:55:52.674Z,98702.53
2022-11-30T11:58:21.566Z,98704.34
2022-11-30T12:00:48.346Z,98704.22
2022-11-30T12:03:18.812Z,98694.53
2022-11-30T12:05:49.574Z,98687.72
2022-11-30T12:08:37.998Z,98689.97
2022-11-30T12:11:13.902Z,98689.81
2022-11-30T12:13:44.197Z,98693.00
2022-11-30T12:16:20.710Z,98688.16
2022-11-30T12:19:06.064Z,98688.16
2022-11-30T12:21:45.090Z,98685.22
2022-11-30T12:24:11.612Z,98695.38
2022-11-30T12:26:39.652Z,98683.41
2022-11-30T12:29:06.165Z,98691.75
2022-11-30T12:31:39.698Z,98694.63
2022-11-30T12:34:38.876Z,98681.91
2022-11-30T12:37:15.509Z,98687.72
2022-11-30T12:40:03.463Z,98688.13
2022-11-30T12:42:37.119Z,98681.63
2022-11-30T12:45:04.130Z,98683.00
2022-11-30T12:47:33.796Z,98678.69
2022-11-30T12:50:19.251Z,98687.97
2022-11-30T12:53:01.620Z,98685.34
2022-11-30T12:55:43.888Z,98680.91
2022-11-30T12:58:19.607Z,98684.00
2022-11-30T13:00:55.666Z,98685.78
2022-11-30T13:03:42.702Z,98687.16
2022-11-30T13:06:14.183Z,98675.34
2022-11-30T13:08:49.664Z,98675.09
2022-11-30T13:11:23.259Z,98681.47
2022-11-30T13:13:51.150Z,98679.22
2022-11-30T13:16:18.176Z,98679.53
2022-11-30T13:18:44.859Z,98675.09
2022-11-30T13:21:23.704Z,98676.06
2022-11-30T13:24:05.852Z,98673.94
2022-11-30T13:26:32.491Z,98680.78
2022-11-30T13:28:59.010Z,98680.06
2022-11-30T13:31:30.391Z,98682.03
2022-11-30T13:33:58.302Z,98681.44
2022-11-30T13:36:40.443Z,98684.69
2022-11-30T13:39:16.570Z,98677.44
2022-11-30T13:41:43.930Z,98694.28
2022-11-30T13:44:22.921Z,98693.44
2022-11-30T13:46:50.227Z,98685.66
2022-11-30T13:49:22.274Z,98692.31
2022-11-30T13:52:07.206Z,98689.38
2022-11-30T13:54:46.173Z,98684.97
2022-11-30T13:57:39.130Z,98689.53
2022-11-30T14:00:25.221Z,98681.91
2022-11-30T14:02:54.469Z,98672.84
2022-11-30T14:05:40.331Z,98684.66
2022-11-30T14:08:07.180Z,98686.03
2022-11-30T14:10:33.826Z,98684.53
2022-11-30T14:13:10.751Z,98680.47
2022-11-30T14:15:40.942Z,98679.63
2022-11-30T14:18:07.421Z,98679.78
2022-11-30T14:20:37.967Z,98682.69
2022-11-30T14:23:05.479Z,98679.66
2022-11-30T14:25:32.086Z,98683.38
2022-11-30T14:27:58.691Z,98681.69
2022-11-30T14:30:25.354Z,98686.97
2022-11-30T14:32:53.205Z,98687.69
2022-11-30T14:35:20.453Z,98690.03
2022-11-30T14:37:54.389Z,98687.81
2022-11-30T14:40:22.539Z,98698.91
2022-11-30T14:42:53.116Z,98695.56
2022-11-30T14:45:21.410Z,98694.59
2022-11-30T14:47:50.422Z,98697.94
2022-11-30T14:50:26.579Z,98701.09
2022-11-30T14:53:05.465Z,98691.66
2022-11-30T14:55:33.792Z,98684.69
2022-11-30T14:58:03.980Z,98685.66
2022-11-30T15:00:37.035Z,98692.97
2022-11-30T15:03:03.814Z,98700.94
2022-11-30T15:05:30.939Z,98695.81
2022-11-30T15:07:57.600Z,98695.00
2022-11-30T15:10:29.449Z,98691.66
2022-11-30T15:12:56.596Z,98691.50
2022-11-30T15:15:24.531Z,98695.56
2022-11-30T15:17:55.284Z,98688.03
2022-11-30T15:20:30.935Z,98689.56
2022-11-30T15:22:58.239Z,98693.66
2022-11-30T15:25:26.393Z,98694.03
2022-11-30T15:27:52.948Z,98696.41
2022-11-30T15:30:19.676Z,98690.97
2022-11-30T15:32:47.072Z,98693.94
2022-11-30T15:35:20.732Z,98689.84
2022-11-30T15:37:47.255Z,98705.84
2022-11-30T15:40:14.919Z,98698.38
2022-11-30T15:42:41.507Z,98698.50
2022-11-30T15:45:11.092Z,98701.56
2022-11-30T15:47:38.203Z,98696.97
2022-11-30T15:50:30.705Z,98706.53
2022-11-30T15:52:58.097Z,98707.50
2022-11-30T15:55:44.329Z,98716.78
2022-11-30T15:58:27.666Z,98715.81
2022-11-30T16:01:00.338Z,98714.41
2022-11-30T16:03:27.004Z,98712.84
2022-11-30T16:05:55.214Z,98714.16
2022-11-30T16:08:21.781Z,98717.91
2022-11-30T16:10:48.422Z,98722.81
2022-11-30T16:13:15.919Z,98721.13
2022-11-30T16:15:51.888Z,98719.59
2022-11-30T16:18:20.875Z,98727.94
2022-11-30T16:20:49.428Z,98736.06
2022-11-30T16:23:16.316Z,98731.13
2022-11-30T16:25:43.710Z,98722.25
2022-11-30T16:28:10.663Z,98725.97
2022-11-30T16:30:37.275Z,98732.97
2022-11-30T16:33:03.897Z,98725.78
2022-11-30T16:35:37.281Z,98727.50
2022-11-30T16:38:03.872Z,98729.81
2022-11-30T16:40:34.011Z,98725.81
2022-11-30T16:43:04.948Z,98731.50
2022-11-30T16:45:37.696Z,98729.25
2022-11-30T16:48:04.644Z,98734.31
2022-11-30T16:50:34.854Z,98731.50
2022-11-30T16:53:01.955Z,98730.16
2022-11-30T16:55:29.796Z,98722.44
2022-11-30T16:57:56.488Z,98729.25
2022-11-30T17:00:23.335Z,98735.44
2022-11-30T17:03:11.337Z,98743.34
2022-11-30T17:05:38.107Z,98742.47
2022-11-30T17:08:04.770Z,98742.72
2022-11-30T17:10:31.698Z,98738.41
2022-11-30T17:12:58.239Z,98745.00
2022-11-30T17:15:25.036Z,98748.78
2022-11-30T17:17:52.188Z,98743.06
2022-11-30T17:20:18.739Z,98752.13
2022-11-30T17:22:45.741Z,98752.72
2022-11-30T17:25:16.470Z,98753.88
2022-11-30T17:27:43.166Z,98750.91
2022-11-30T17:30:10.245Z,98751.28
2022-11-30T17:32:36.945Z,98758.09
2022-11-30T17:35:03.793Z,98755.63
2022-11-30T17:37:30.367Z,98761.44
2022-11-30T17:39:57.457Z,98764.47
2022-11-30T17:42:24.119Z,98757.72
2022-11-30T17:44:51.289Z,98763.56
2022-11-30T17:47:17.991Z,98766.91
2022-11-30T17:49:44.619Z,98765.97
2022-11-30T17:52:11.231Z,98765.06
2022-11-30T17:54:37.761Z,98768.06
2022-11-30T17:57:04.577Z,98769.72
2022-11-30T17:59:32.135Z,98766.19
2022-11-30T18:01:58.797Z,98760.88
2022-11-30T18:04:25.337Z,98772.34
2022-11-30T18:06:52.480Z,98768.50
2022-11-30T18:09:19.079Z,98771.41
2022-11-30T18:11:45.687Z,98769.41
2022-11-30T18:14:12.253Z,98772.16
2022-11-30T18:16:39.002Z,98769.28
2022-11-30T18:19:12.089Z,98780.03
2022-11-30T18:21:40.072Z,98774.09
2022-11-30T18:24:06.833Z,98772.75
2022-11-30T18:26:35.589Z,98783.28
2022-11-30T18:29:02.326Z,98783.78
2022-11-30T18:31:29.744Z,98787.75
2022-11-30T18:34:00.582Z,98794.56
2022-11-30T18:36:27.499Z,98791.41
2022-11-30T18:38:54.115Z,98795.41
2022-11-30T18:41:20.685Z,98796.25
2022-11-30T18:43:47.230Z,98791.81
2022-11-30T18:46:13.963Z,98794.00
2022-11-30T18:48:41.050Z,98800.50
2022-11-30T18:51:15.071Z,98797.66
2022-11-30T18:53:41.679Z,98797.22
2022-11-30T18:56:20.616Z,98799.84
2022-11-30T18:58:47.474Z,98798.19
2022-11-30T19:01:14.211Z,98797.31
2022-11-30T19:03:41.032Z,98800.16
2022-11-30T19:06:08.230Z,98798.19
2022-11-30T19:08:35.085Z,98802.19
2022-11-30T19:11:05.232Z,98800.50
2022-11-30T19:13:32.835Z,98802.88
2022-11-30T19:16:03.115Z,98807.41
2022-11-30T19:18:29.821Z,98807.66
2022-11-30T19:20:56.360Z,98800.75
2022-11-30T19:23:23.887Z,98809.09
2022-11-30T19:25:50.495Z,98812.41
2022-11-30T19:28:17.384Z,98811.25
2022-11-30T19:30:44.012Z,98813.75
2022-11-30T19:33:10.754Z,98819.84
2022-11-30T19:35:38.574Z,98811.88
2022-11-30T19:38:05.103Z,98809.84
2022-11-30T19:40:31.928Z,98817.13
2022-11-30T19:42:59.518Z,98812.59
2022-11-30T19:45:26.062Z,98825.00
2022-11-30T19:47:52.644Z,98826.56
2022-11-30T19:50:19.298Z,98823.72
2022-11-30T19:52:48.463Z,98829.81
2022-11-30T19:55:15.760Z,98833.38
2022-11-30T19:57:42.348Z,98834.25
2022-11-30T20:00:09.383Z,98831.72
2022-11-30T20:02:42.255Z,98831.72
2022-11-30T20:05:09.145Z,98831.84
2022-11-30T20:07:36.539Z,98833.50
2022-11-30T20:10:03.306Z,98832.31
2022-11-30T20:12:29.963Z,98839.50
2022-11-30T20:14:56.530Z,98838.53
2022-11-30T20:17:24.727Z,98827.78
2022-11-30T20:19:51.387Z,98830.75
2022-11-30T20:22:18.012Z,98834.09
2022-11-30T20:24:44.579Z,98834.06
2022-11-30T20:27:11.185Z,98831.91
2022-11-30T20:29:37.794Z,98839.56
2022-11-30T20:32:04.473Z,98836.34
2022-11-30T20:34:34.647Z,98839.44
2022-11-30T20:37:02.465Z,98843.06
2022-11-30T20:39:29.164Z,98836.97
2022-11-30T20:41:55.700Z,98842.47
2022-11-30T20:44:22.260Z,98841.69
2022-11-30T20:46:49.060Z,98838.03
2022-11-30T20:49:17.995Z,98840.84
2022-11-30T20:51:44.982Z,98845.63
2022-11-30T20:54:12.109Z,98845.44
2022-11-30T20:56:38.797Z,98846.75
2022-11-30T20:59:09.667Z,98848.81
2022-11-30T21:01:36.292Z,98847.56
2022-11-30T21:04:02.921Z,98846.84
2022-11-30T21:06:29.901Z,98855.47
2022-11-30T21:08:56.531Z,98846.25
2022-11-30T21:11:23.455Z,98843.81
2022-11-30T21:13:50.579Z,98847.06
2022-11-30T21:16:22.530Z,98850.53
2022-11-30T21:18:52.387Z,98854.47
2022-11-30T21:21:20.363Z,98851.03
2022-11-30T21:23:47.707Z,98846.19
2022-11-30T21:26:14.727Z,98853.19
2022-11-30T21:28:41.305Z,98847.16
2022-11-30T21:31:07.946Z,98845.41
2022-11-30T21:33:34.538Z,98843.97
2022-11-30T21:36:04.342Z,98851.97
2022-11-30T21:38:31.019Z,98847.09
2022-11-30T21:40:59.091Z,98854.47
2022-11-30T21:43:26.589Z,98847.69
2022-11-30T21:45:59.755Z,98855.28
2022-11-30T21:48:28.047Z,98857.75
2022-11-30T21:50:59.072Z,98858.50
2022-11-30T21:53:26.071Z,98852.06
2022-11-30T21:55:55.737Z,98852.34
2022-11-30T21:58:22.679Z,98845.19
2022-11-30T22:00:56.021Z,98853.25
2022-11-30T22:03:22.856Z,98849.47
2022-11-30T22:06:15.729Z,98849.06
2022-11-30T22:08:42.255Z,98850.03
2022-11-30T22:11:09.530Z,98861.13
2022-11-30T22:13:36.558Z,98858.66
2022-11-30T22:16:04.354Z,98852.44
2022-11-30T22:18:31.334Z,98853.72
2022-11-30T22:21:03.077Z,98857.44
2022-11-30T22:23:29.642Z,98854.22
2022-11-30T22:26:06.847Z,98871.56
2022-11-30T22:28:33.415Z,98860.78
2022-11-30T22:31:03.917Z,98868.41
2022-11-30T22:33:31.883Z,98863.50
2022-11-30T22:35:58.451Z,98854.59
2022-11-30T22:38:25.489Z,98858.16
2022-11-30T22:40:52.270Z,98853.75
2022-11-30T22:43:18.869Z,98856.88
2022-11-30T22:45:45.421Z,98856.31
2022-11-30T22:48:12.137Z,98852.69
2022-11-30T22:50:38.738Z,98849.19
2022-11-30T22:53:05.387Z,98847.25
2022-11-30T22:55:32.087Z,98860.38
2022-11-30T22:57:58.715Z,98862.34
2022-11-30T23:00:25.233Z,98853.63
2022-11-30T23:02:51.872Z,98854.69
2022-11-30T23:05:18.524Z,98851.88
2022-11-30T23:07:45.166Z,98849.28
2022-11-30T23:10:11.976Z,98850.72
2022-11-30T23:12:58.361Z,98854.91
2022-11-30T23:15:25.035Z,98847.28
2022-11-30T23:17:51.680Z,98851.25
2022-11-30T23:20:18.215Z,98847.00
2022-11-30T23:22:44.814Z,98847.84
2022-11-30T23:25:11.379Z,98840.25
2022-11-30T23:27:37.943Z,98847.06
2022-11-30T23:30:04.961Z,98847.00
2022-11-30T23:32:31.674Z,98846.78
2022-11-30T23:34:58.265Z,98849.16
2022-11-30T23:37:24.805Z,98850.97
2022-11-30T23:39:51.307Z,98847.41
2022-11-30T23:42:17.814Z,98846.03
2022-11-30T23:44:44.766Z,98842.50
2022-11-30T23:47:15.400Z,98840.38
2022-11-30T23:49:44.622Z,98834.25
2022-11-30T23:52:11.224Z,98834.13
2022-11-30T23:54:37.803Z,98843.50
2022-11-30T23:57:04.805Z,98837.63
2022-11-30T23:59:31.388Z,98837.53
